Terminal Aerodrome Forecast
Issued by NWS

Current Version | Previous Version | Text Only | Print | Product List | Glossary Off
Versions: 1 2 3 4 5 6 7 8 9 10 11 12 13 14 15 16 17

601
FTUS41 KPBZ 222320
TAFHLG
TAF
KHLG 222320Z 2300/2324 21010KT P6SM OVC250
     FM230700 20008KT 5SM -SHRA OVC015
     FM231200 21008KT 3SM -SHRA BR OVC010
     FM231600 23012G20KT 3SM -SHRA VCTS OVC010CB=

USA.gov is the U.S. government's official web portal to all federal, state and local government web resources and services.